createdAt,value
2019-05-22T00:01:17.248Z,13.80
2019-05-22T00:03:50.689Z,13.40
2019-05-22T00:06:25.360Z,13.17
2019-05-22T00:08:55.702Z,14.53
2019-05-22T00:11:26.483Z,13.57
2019-05-22T00:13:56.862Z,14.93
2019-05-22T00:16:27.417Z,16.13
2019-05-22T00:18:57.807Z,14.87
2019-05-22T00:21:28.549Z,15.57
2019-05-22T00:23:58.995Z,15.87
2019-05-22T00:26:29.801Z,15.50
2019-05-22T00:28:59.938Z,15.73
2019-05-22T00:31:30.614Z,14.90
2019-05-22T00:34:01.326Z,17.80
2019-05-22T00:36:32.212Z,16.30
2019-05-22T00:39:02.657Z,20.00
2019-05-22T00:41:33.115Z,18.37
2019-05-22T00:44:03.892Z,17.80
2019-05-22T00:46:34.083Z,21.80
2019-05-22T00:49:04.641Z,17.50
2019-05-22T00:51:44.754Z,24.47
2019-05-22T00:54:23.878Z,19.23
2019-05-22T00:57:02.333Z,19.33
2019-05-22T00:59:34.567Z,16.87
2019-05-22T01:02:06.854Z,19.83
2019-05-22T01:04:38.076Z,16.10
2019-05-22T01:07:27.537Z,20.53
2019-05-22T01:09:57.949Z,19.07
2019-05-22T01:12:28.956Z,19.13
2019-05-22T01:15:01.168Z,17.17
2019-05-22T01:17:32.510Z,18.60
2019-05-22T01:20:03.716Z,20.77
2019-05-22T01:22:35.261Z,18.37
2019-05-22T01:25:05.993Z,18.40
2019-05-22T01:27:37.764Z,18.83
2019-05-22T01:30:09.411Z,17.93
2019-05-22T01:32:46.728Z,18.27
2019-05-22T01:35:17.818Z,16.53
2019-05-22T01:37:48.402Z,17.73
2019-05-22T01:40:25.497Z,16.43
2019-05-22T01:42:57.769Z,17.47
2019-05-22T01:45:28.112Z,16.47
2019-05-22T01:48:00.622Z,17.03
2019-05-22T01:50:42.624Z,17.33
2019-05-22T01:53:15.163Z,16.60
2019-05-22T01:55:46.920Z,17.43
2019-05-22T01:58:18.047Z,17.57
2019-05-22T02:00:48.935Z,14.27
2019-05-22T02:03:19.283Z,13.80
2019-05-22T02:05:49.361Z,15.90
2019-05-22T02:08:19.818Z,15.50
2019-05-22T02:10:50.206Z,15.93
2019-05-22T02:13:24.618Z,16.60
2019-05-22T02:15:55.066Z,16.20
2019-05-22T02:18:25.408Z,19.70
2019-05-22T02:20:55.734Z,17.70
2019-05-22T02:23:26.037Z,17.27
2019-05-22T02:25:56.486Z,17.17
2019-05-22T02:28:27.357Z,19.80
2019-05-22T02:30:57.740Z,19.40
2019-05-22T02:33:28.152Z,19.97
2019-05-22T02:35:58.517Z,20.50
2019-05-22T02:39:53.031Z,22.60
2019-05-22T02:42:26.130Z,21.60
2019-05-22T02:44:56.720Z,22.13
2019-05-22T02:47:27.043Z,20.90
2019-05-22T02:49:57.404Z,21.53
2019-05-22T02:52:27.064Z,21.07
2019-05-22T02:54:57.350Z,19.03
2019-05-22T02:57:29.119Z,18.77
2019-05-22T02:59:59.923Z,21.73
2019-05-22T03:02:30.979Z,22.07
2019-05-22T03:05:07.134Z,23.53
2019-05-22T03:07:38.374Z,25.53
2019-05-22T03:10:11.153Z,21.47
2019-05-22T03:12:41.481Z,20.20
2019-05-22T03:15:14.244Z,23.03
2019-05-22T03:17:44.766Z,22.30
2019-05-22T03:20:18.256Z,26.43
2019-05-22T03:22:58.205Z,23.87
2019-05-22T03:25:29.222Z,28.17
2019-05-22T03:27:59.558Z,26.87
2019-05-22T03:30:31.584Z,26.10
2019-05-22T03:33:02.776Z,22.93
2019-05-22T03:35:33.413Z,29.13
2019-05-22T03:38:03.841Z,29.67
2019-05-22T03:40:34.640Z,28.70
2019-05-22T03:43:21.834Z,31.40
2019-05-22T03:45:52.125Z,29.30
2019-05-22T03:48:22.486Z,32.17
2019-05-22T03:50:54.299Z,28.10
2019-05-22T03:53:24.591Z,34.40
2019-05-22T03:55:54.946Z,33.27
2019-05-22T03:58:25.179Z,35.03
2019-05-22T04:00:55.812Z,38.47
2019-05-22T04:03:26.185Z,36.90
2019-05-22T04:05:56.593Z,33.43
2019-05-22T04:08:28.089Z,34.50
2019-05-22T04:11:00.208Z,32.13
2019-05-22T04:13:30.540Z,34.93
2019-05-22T04:16:01.011Z,35.10
2019-05-22T04:18:31.426Z,34.67
2019-05-22T04:21:01.915Z,30.23
2019-05-22T04:23:32.280Z,30.40
2019-05-22T04:26:02.852Z,31.33
2019-05-22T04:28:33.344Z,31.33
2019-05-22T04:31:03.822Z,31.67
2019-05-22T04:33:34.098Z,31.20
2019-05-22T04:36:04.893Z,31.00
2019-05-22T04:38:35.219Z,30.77
2019-05-22T04:41:06.103Z,25.47
2019-05-22T04:43:36.658Z,24.40
2019-05-22T04:46:07.692Z,24.60
2019-05-22T04:48:38.028Z,21.57
2019-05-22T04:51:18.865Z,20.80
2019-05-22T04:53:49.028Z,23.13
2019-05-22T04:56:19.281Z,20.37
2019-05-22T04:58:49.645Z,20.83
2019-05-22T05:01:20.598Z,17.83
2019-05-22T05:03:51.068Z,17.30
2019-05-22T05:06:22.048Z,15.87
2019-05-22T05:08:52.338Z,17.53
2019-05-22T05:11:22.740Z,16.73
2019-05-22T05:13:53.297Z,15.80
2019-05-22T05:16:23.551Z,17.40
2019-05-22T05:18:53.246Z,12.80
2019-05-22T05:21:23.471Z,10.67
2019-05-22T05:23:53.909Z,11.97
2019-05-22T05:26:24.329Z,10.57
2019-05-22T05:28:54.660Z,10.17
2019-05-22T05:31:25.114Z,10.47
2019-05-22T05:34:12.968Z,9.00
2019-05-22T05:36:43.540Z,8.13
2019-05-22T05:40:21.021Z,7.57
2019-05-22T05:42:51.223Z,6.37
2019-05-22T05:45:21.523Z,5.70
2019-05-22T05:47:51.850Z,5.50
2019-05-22T05:50:37.866Z,5.37
2019-05-22T05:52:53.327Z,6.07
2019-05-22T05:55:24.314Z,4.80
2019-05-22T05:58:27.728Z,4.50
2019-05-22T06:01:01.122Z,4.47
2019-05-22T06:03:33.790Z,5.70
2019-05-22T06:06:08.967Z,5.17
2019-05-22T06:08:39.474Z,5.03
2019-05-22T06:11:30.203Z,4.57
2019-05-22T06:14:00.623Z,5.50
2019-05-22T06:18:57.162Z,5.77
2019-05-22T06:21:26.007Z,7.10
2019-05-22T06:25:06.093Z,6.60
2019-05-22T06:27:53.941Z,6.60
2019-05-22T06:30:36.586Z,5.87
2019-05-22T06:33:29.352Z,6.87
2019-05-22T06:36:00.132Z,7.97
2019-05-22T06:39:06.264Z,6.03
2019-05-22T06:41:38.653Z,8.10
2019-05-22T06:44:24.533Z,6.10
2019-05-22T06:46:54.898Z,7.97
2019-05-22T06:49:58.546Z,7.53
2019-05-22T06:52:29.049Z,7.60
2019-05-22T06:54:59.274Z,6.77
2019-05-22T06:57:29.571Z,6.93
2019-05-22T07:00:13.521Z,7.10
2019-05-22T07:02:31.542Z,5.90
2019-05-22T07:05:01.965Z,6.27
2019-05-22T07:07:32.441Z,4.70
2019-05-22T07:10:03.102Z,6.00
2019-05-22T07:12:34.182Z,5.60
2019-05-22T07:15:40.916Z,7.93
2019-05-22T07:18:13.100Z,6.20
2019-05-22T07:20:43.282Z,6.27
2019-05-22T07:23:25.975Z,7.10
2019-05-22T07:26:00.298Z,4.87
2019-05-22T07:28:36.000Z,5.70
2019-05-22T07:31:07.127Z,5.10
2019-05-22T07:33:37.949Z,4.53
2019-05-22T07:36:12.294Z,5.77
2019-05-22T07:38:39.384Z,4.90
2019-05-22T07:41:10.031Z,4.43
2019-05-22T07:43:41.974Z,5.70
2019-05-22T07:46:11.247Z,5.20
2019-05-22T07:48:41.918Z,4.87
2019-05-22T07:51:12.428Z,6.37
2019-05-22T07:53:42.821Z,6.47
2019-05-22T07:56:13.372Z,5.37
2019-05-22T07:58:44.353Z,6.60
2019-05-22T08:01:15.749Z,6.27
2019-05-22T08:03:46.239Z,6.47
2019-05-22T08:06:16.722Z,6.83
2019-05-22T08:08:47.164Z,6.70
2019-05-22T08:11:17.572Z,7.10
2019-05-22T08:13:48.125Z,5.63
2019-05-22T08:16:18.541Z,6.63
2019-05-22T08:18:48.968Z,6.03
2019-05-22T08:21:19.291Z,4.80
2019-05-22T08:23:49.643Z,6.10
2019-05-22T08:26:20.382Z,6.10
2019-05-22T08:28:51.229Z,7.40
2019-05-22T08:31:21.974Z,6.20
2019-05-22T08:33:52.635Z,6.60
2019-05-22T08:36:22.930Z,6.00
2019-05-22T08:38:53.618Z,6.07
2019-05-22T08:41:26.412Z,6.33
2019-05-22T08:44:15.271Z,6.30
2019-05-22T08:46:27.888Z,6.10
2019-05-22T08:48:58.336Z,6.30
2019-05-22T08:51:28.633Z,6.00
2019-05-22T08:53:59.502Z,6.13
2019-05-22T08:56:30.298Z,9.20
2019-05-22T08:59:18.482Z,7.13
2019-05-22T09:01:31.930Z,8.63
2019-05-22T09:04:02.128Z,7.10
2019-05-22T09:06:32.653Z,6.90
2019-05-22T09:09:03.210Z,6.13
2019-05-22T09:11:33.782Z,6.47
2019-05-22T09:14:04.359Z,7.03
2019-05-22T09:16:34.636Z,7.37
2019-05-22T09:19:06.053Z,6.60
2019-05-22T09:21:40.016Z,5.43
2019-05-22T09:24:07.450Z,7.27
2019-05-22T09:26:37.859Z,6.13
2019-05-22T09:29:08.356Z,7.67
2019-05-22T09:31:38.988Z,7.07
2019-05-22T09:34:09.729Z,7.63
2019-05-22T09:36:40.444Z,6.97
2019-05-22T09:39:10.629Z,9.50
2019-05-22T09:41:40.262Z,8.57
2019-05-22T09:44:10.603Z,9.57
2019-05-22T09:46:40.982Z,11.43
2019-05-22T09:49:12.370Z,11.90
2019-05-22T09:51:42.834Z,14.97
2019-05-22T09:54:13.390Z,14.37
2019-05-22T09:56:43.937Z,13.87
2019-05-22T09:59:14.758Z,12.63
2019-05-22T10:01:44.260Z,14.83
2019-05-22T10:04:14.798Z,16.07
2019-05-22T10:06:45.479Z,16.40
2019-05-22T10:09:15.922Z,16.37
2019-05-22T10:11:46.507Z,14.97
2019-05-22T10:14:17.258Z,17.33
2019-05-22T10:16:47.778Z,18.10
2019-05-22T10:19:18.300Z,17.67
2019-05-22T10:21:49.513Z,16.63
2019-05-22T10:24:20.362Z,21.43
2019-05-22T10:26:50.807Z,22.00
2019-05-22T10:29:21.495Z,17.30
2019-05-22T10:31:51.982Z,17.47
2019-05-22T10:34:22.600Z,22.10
2019-05-22T10:36:53.046Z,22.87
2019-05-22T10:39:24.799Z,18.17
2019-05-22T10:41:54.087Z,20.67
2019-05-22T10:44:24.406Z,23.10
2019-05-22T10:46:54.812Z,21.37
2019-05-22T10:49:25.369Z,21.47
2019-05-22T10:51:55.860Z,21.17
2019-05-22T10:54:26.374Z,22.40
2019-05-22T10:56:56.949Z,24.17
2019-05-22T10:59:27.511Z,20.27
2019-05-22T11:01:57.941Z,21.53
2019-05-22T11:04:28.771Z,19.80
2019-05-22T11:06:59.166Z,21.77
2019-05-22T11:09:30.002Z,19.90
2019-05-22T11:12:00.614Z,18.90
2019-05-22T11:14:31.476Z,18.37
2019-05-22T11:17:02.486Z,18.80
2019-05-22T11:19:33.117Z,21.00
2019-05-22T11:22:02.928Z,17.80
2019-05-22T11:24:33.073Z,22.87
2019-05-22T11:27:03.680Z,22.90
2019-05-22T11:29:34.239Z,22.80
2019-05-22T11:32:04.921Z,23.37
2019-05-22T11:34:35.731Z,21.70
2019-05-22T11:37:06.468Z,22.57
2019-05-22T11:39:39.237Z,27.00
2019-05-22T11:42:06.968Z,24.63
2019-05-22T11:44:37.443Z,25.17
2019-05-22T11:47:08.054Z,24.13
2019-05-22T11:49:38.824Z,25.70
2019-05-22T11:52:08.913Z,30.93
2019-05-22T11:54:39.290Z,29.77
2019-05-22T11:57:09.805Z,24.97
2019-05-22T11:59:39.662Z,29.17
2019-05-22T12:02:10.266Z,29.53
2019-05-22T12:04:48.161Z,28.10
2019-05-22T12:07:11.442Z,25.90
2019-05-22T12:09:41.944Z,26.63
2019-05-22T12:12:12.109Z,31.93
2019-05-22T12:14:42.476Z,30.30
2019-05-22T12:17:12.931Z,28.27
2019-05-22T12:19:43.564Z,28.77
2019-05-22T12:22:14.317Z,27.07
2019-05-22T12:24:45.115Z,33.23
2019-05-22T12:27:15.085Z,32.10
2019-05-22T12:29:45.827Z,32.47
2019-05-22T12:32:15.923Z,26.37
2019-05-22T12:34:46.422Z,30.37
2019-05-22T12:37:16.273Z,28.70
2019-05-22T12:39:46.883Z,32.57
2019-05-22T12:42:17.422Z,33.83
2019-05-22T12:44:48.313Z,31.60
2019-05-22T12:47:18.238Z,35.53
2019-05-22T12:49:48.802Z,32.73
2019-05-22T12:52:19.466Z,28.67
2019-05-22T12:54:52.846Z,26.27
2019-05-22T12:57:21.160Z,27.73
2019-05-22T12:59:51.716Z,32.23
2019-05-22T13:02:22.258Z,25.07
2019-05-22T13:04:53.206Z,29.97
2019-05-22T13:07:23.675Z,29.60
2019-05-22T13:09:54.156Z,27.03
2019-05-22T13:12:24.926Z,23.60
2019-05-22T13:15:09.228Z,12.90
2019-05-22T13:17:26.854Z,5.27
2019-05-22T13:19:57.431Z,3.17
2019-05-22T13:22:28.168Z,3.80
2019-05-22T13:24:58.835Z,5.07
2019-05-22T13:27:29.481Z,2.07
2019-05-22T13:30:00.343Z,1.33
2019-05-22T13:32:30.969Z,2.20
2019-05-22T13:35:01.755Z,1.73
2019-05-22T13:37:32.351Z,2.57
2019-05-22T13:40:03.814Z,1.80
2019-05-22T13:42:34.458Z,2.73
2019-05-22T13:45:05.430Z,3.13
2019-05-22T13:47:35.883Z,2.83
2019-05-22T13:50:06.906Z,2.30
2019-05-22T13:52:37.521Z,2.20
2019-05-22T13:55:07.561Z,2.07
2019-05-22T13:57:38.103Z,3.13
2019-05-22T14:00:09.717Z,1.70
2019-05-22T14:02:39.690Z,2.27
2019-05-22T14:05:13.509Z,3.80
2019-05-22T14:07:40.901Z,1.97
2019-05-22T14:10:11.417Z,1.60
2019-05-22T14:12:41.841Z,4.57
2019-05-22T14:15:13.071Z,2.77
2019-05-22T14:17:43.617Z,2.60
2019-05-22T14:20:14.353Z,3.17
2019-05-22T14:22:44.919Z,4.73
2019-05-22T14:25:15.639Z,4.20
2019-05-22T14:27:46.339Z,3.50
2019-05-22T14:30:17.134Z,6.23
2019-05-22T14:32:47.553Z,7.57
2019-05-22T14:35:18.376Z,3.73
2019-05-22T14:37:49.020Z,5.73
2019-05-22T14:40:19.614Z,4.10
2019-05-22T14:42:50.047Z,3.63
2019-05-22T14:45:20.712Z,4.00
2019-05-22T14:47:51.106Z,3.80
2019-05-22T14:50:21.924Z,4.73
2019-05-22T14:52:52.875Z,5.30
2019-05-22T14:55:23.735Z,4.80
2019-05-22T16:24:58.224Z,4.60
2019-05-22T16:29:52.225Z,4.57
2019-05-22T16:32:23.090Z,6.30
2019-05-22T16:34:53.732Z,3.50
2019-05-22T16:37:24.550Z,4.10
2019-05-22T16:39:55.098Z,3.00
2019-05-22T16:42:25.946Z,4.37
2019-05-22T16:44:56.659Z,5.83
2019-05-22T16:47:27.524Z,3.97
2019-05-22T16:49:58.239Z,3.93
2019-05-22T16:52:28.828Z,4.80
2019-05-22T16:54:59.771Z,5.87
2019-05-22T16:57:30.618Z,5.03
2019-05-22T17:00:01.007Z,4.67
2019-05-22T17:02:31.916Z,4.17
2019-05-22T17:05:02.580Z,4.23
2019-05-22T17:07:33.088Z,3.90
2019-05-22T17:10:04.176Z,4.57
2019-05-22T17:12:34.840Z,4.17
2019-05-22T17:15:05.650Z,4.53
2019-05-22T17:17:36.075Z,3.37
2019-05-22T17:20:07.320Z,3.70
2019-05-22T17:22:38.054Z,3.57
2019-05-22T17:25:08.899Z,3.53
2019-05-22T17:27:39.540Z,3.27
2019-05-22T17:30:10.173Z,4.67
2019-05-22T17:32:41.010Z,4.37
2019-05-22T17:35:11.831Z,3.83
2019-05-22T17:37:42.542Z,4.73
2019-05-22T17:40:13.209Z,4.20
2019-05-22T17:42:43.874Z,4.03
2019-05-22T17:45:14.682Z,3.53
2019-05-22T17:47:45.472Z,4.27
2019-05-22T17:50:25.983Z,4.67
2019-05-22T17:52:46.841Z,8.20
2019-05-22T17:55:17.389Z,3.80
2019-05-22T17:57:47.922Z,4.37
2019-05-22T18:00:23.650Z,3.67
2019-05-22T18:02:54.083Z,3.80
2019-05-22T18:05:24.854Z,4.07
2019-05-22T18:07:56.592Z,3.90
2019-05-22T18:10:27.268Z,4.23
2019-05-22T18:12:57.963Z,4.37
2019-05-22T18:15:28.601Z,3.63
2019-05-22T18:17:59.420Z,4.10
2019-05-22T18:20:42.429Z,3.67
2019-05-22T18:23:00.850Z,3.60
2019-05-22T18:25:31.741Z,4.13
2019-05-22T18:28:02.800Z,5.33
2019-05-22T18:30:33.695Z,5.37
2019-05-22T18:33:04.459Z,4.53
2019-05-22T18:35:35.238Z,5.07
2019-05-22T18:38:05.856Z,4.83
2019-05-22T18:40:36.339Z,4.80
2019-05-22T18:43:06.895Z,5.47
2019-05-22T18:45:37.778Z,5.13
2019-05-22T18:48:09.231Z,4.50
2019-05-22T18:50:40.027Z,4.03
2019-05-22T18:53:10.685Z,5.83
2019-05-22T18:55:41.010Z,6.33
2019-05-22T18:58:11.643Z,3.50
2019-05-22T19:00:41.444Z,5.17
2019-05-22T19:03:11.953Z,4.60
2019-05-22T19:05:42.920Z,5.47
2019-05-22T19:08:12.818Z,4.27
2019-05-22T19:10:42.470Z,4.77
2019-05-22T19:13:14.644Z,3.67
2019-05-22T19:15:44.344Z,3.53
2019-05-22T19:18:14.917Z,3.70
2019-05-22T19:20:45.612Z,4.50
2019-05-22T19:23:16.195Z,4.13
2019-05-22T19:25:46.669Z,5.07
2019-05-22T19:28:17.314Z,3.87
2019-05-22T19:30:47.828Z,4.03
2019-05-22T19:33:18.363Z,5.97
2019-05-22T19:35:48.883Z,5.67
2019-05-22T19:38:22.768Z,4.73
2019-05-22T19:40:50.149Z,4.67
2019-05-22T19:43:20.763Z,4.37
2019-05-22T19:45:51.572Z,5.03
2019-05-22T19:48:22.076Z,4.10
2019-05-22T19:50:52.723Z,4.20
2019-05-22T19:53:23.566Z,3.50
2019-05-22T19:55:54.154Z,3.83
2019-05-22T19:58:24.888Z,4.00
2019-05-22T20:00:55.466Z,4.00
2019-05-22T20:03:26.289Z,4.33
2019-05-22T20:05:56.770Z,4.10
2019-05-22T20:08:27.563Z,5.53
2019-05-22T20:10:58.224Z,3.83
2019-05-22T20:13:28.890Z,3.73
2019-05-22T20:15:59.348Z,5.40
2019-05-22T20:18:29.834Z,5.27
2019-05-22T20:21:00.546Z,4.63
2019-05-22T20:23:35.916Z,3.90
2019-05-22T20:26:02.197Z,4.83
2019-05-22T20:28:32.906Z,4.13
2019-05-22T20:31:03.619Z,4.17
2019-05-22T20:33:34.240Z,3.87
2019-05-22T20:36:04.861Z,5.47
2019-05-22T20:38:35.339Z,3.40
2019-05-22T20:41:05.862Z,5.10
2019-05-22T20:43:36.211Z,4.10
2019-05-22T20:46:06.563Z,3.93
2019-05-22T20:48:37.555Z,6.57
2019-05-22T20:51:11.796Z,3.63
2019-05-22T20:53:53.586Z,3.47
2019-05-22T20:56:13.180Z,3.03
2019-05-22T20:58:44.138Z,4.43
2019-05-22T21:01:14.988Z,4.50
2019-05-22T21:03:45.417Z,3.27
2019-05-22T21:06:16.506Z,3.37
2019-05-22T21:08:47.256Z,3.27
2019-05-22T21:11:18.407Z,4.67
2019-05-22T21:13:48.950Z,3.33
2019-05-22T21:16:19.668Z,3.00
2019-05-22T21:18:50.943Z,3.43
2019-05-22T21:21:21.682Z,3.07
2019-05-22T21:23:52.144Z,3.73
2019-05-22T21:26:22.536Z,2.60
2019-05-22T21:28:52.914Z,3.37
2019-05-22T21:31:23.212Z,2.73
2019-05-22T21:33:54.032Z,2.70
2019-05-22T21:36:24.361Z,4.37
2019-05-22T21:38:54.653Z,3.03
2019-05-22T21:41:25.114Z,4.27
2019-05-22T21:43:55.778Z,5.67
2019-05-22T21:46:26.633Z,3.93
2019-05-22T21:48:58.350Z,4.03
2019-05-22T21:51:28.557Z,5.30
2019-05-22T21:53:59.147Z,5.37
2019-05-22T21:56:29.635Z,5.77
2019-05-22T21:58:59.878Z,7.37
2019-05-22T22:01:33.550Z,5.13
2019-05-22T22:04:10.763Z,5.00
2019-05-22T22:06:41.222Z,5.60
2019-05-22T22:09:11.844Z,4.43
2019-05-22T22:15:15.981Z,5.00
2019-05-22T22:17:46.844Z,5.67
2019-05-22T22:20:17.406Z,5.60
2019-05-22T22:22:47.805Z,7.37
2019-05-22T22:25:18.189Z,6.63
2019-05-22T22:27:48.795Z,4.97
2019-05-22T22:30:22.624Z,4.43
2019-05-22T22:32:52.979Z,5.30
2019-05-22T22:35:23.306Z,5.83
2019-05-22T22:37:53.482Z,4.93
2019-05-22T22:40:23.931Z,9.37
2019-05-22T22:42:54.334Z,5.90
2019-05-22T22:45:28.770Z,5.93
2019-05-22T22:47:59.421Z,5.57
2019-05-22T22:50:29.681Z,5.10
2019-05-22T22:52:59.995Z,4.43
2019-05-22T22:55:30.619Z,5.17
2019-05-22T22:58:15.989Z,7.57
2019-05-22T23:00:35.426Z,6.00
2019-05-22T23:03:06.721Z,5.27
2019-05-22T23:05:37.142Z,6.87
2019-05-22T23:08:07.651Z,5.83
2019-05-22T23:10:37.993Z,5.90
2019-05-22T23:13:08.633Z,6.47
2019-05-22T23:15:39.211Z,6.67
2019-05-22T23:18:09.550Z,6.40
2019-05-22T23:20:38.410Z,6.00
2019-05-22T23:23:07.717Z,6.90
2019-05-22T23:25:38.590Z,5.80
2019-05-22T23:28:09.473Z,6.50
2019-05-22T23:30:39.926Z,7.33
2019-05-22T23:33:10.211Z,5.43
2019-05-22T23:35:40.444Z,8.10
2019-05-22T23:38:10.739Z,7.10
2019-05-22T23:40:41.058Z,7.30
2019-05-22T23:43:11.482Z,5.90
2019-05-22T23:45:41.858Z,6.37
2019-05-22T23:48:12.934Z,6.47
2019-05-22T23:50:43.298Z,5.93
2019-05-22T23:53:13.560Z,6.20
2019-05-22T23:55:44.328Z,6.80
2019-05-22T23:58:15.305Z,6.23
